CheckWX is a tool to help pilots better visualize weather data.  It is not intended as a substitute for an official pre-flight weather briefing.

16:04:44 UTC

EGFF METAR
Cardiff International Airport
Cardiff, United Kingdom
Current

15 mins ago

EGFF 071550Z AUTO 26009KT 9999 OVC010 10/09 Q1012
Observed
Dec-7 @ 15:50 UTC
Wind
  • 260° at 9 KTS
Visibility
10,000+ meters
Flight Rules
MVFR
Cloud Levels
  • Overcast at 1,000' AGL
Temperature
10°C / 50°F
Dewpoint
C / 48°F
Humidity
94%
Altimeter
29.88" Hg
Pressure
1011.92 hPa
Previous

45 mins ago

EGFF 071520Z AUTO 27010KT 9999 OVC012 10/09 Q1013
Observed
Dec-7 @ 15:20 UTC
Wind
  • 270° at 10 KTS
Visibility
10,000+ meters
Flight Rules
MVFR
Cloud Levels
  • Overcast at 1,200' AGL
Temperature
10°C / 50°F
Dewpoint
C / 48°F
Humidity
94%
Altimeter
29.91" Hg
Pressure
1012.92 hPa
Previous

1 hour ago

EGFF 071450Z AUTO 27011KT 9999 OVC013 10/08 Q1013
Observed
Dec-7 @ 14:50 UTC
Wind
  • 270° at 11 KTS
Visibility
10,000+ meters
Flight Rules
MVFR
Cloud Levels
  • Overcast at 1,300' AGL
Temperature
10°C / 50°F
Dewpoint
C / 46°F
Humidity
88%
Altimeter
29.91" Hg
Pressure
1012.92 hPa